sensor_id;sensor_type;location;lat;lon;timestamp;temperature;humidity
68139;DHT22;54940;50.842;4.410;2022-07-22T00:00:50;18.50;99.90
68139;DHT22;54940;50.842;4.410;2022-07-22T00:03:16;18.50;99.90
68139;DHT22;54940;50.842;4.410;2022-07-22T00:05:42;18.50;99.90
68139;DHT22;54940;50.842;4.410;2022-07-22T00:08:08;18.50;99.90
68139;DHT22;54940;50.842;4.410;2022-07-22T00:10:33;18.50;99.90
68139;DHT22;54940;50.842;4.410;2022-07-22T00:12:59;18.50;99.90
68139;DHT22;54940;50.842;4.410;2022-07-22T00:15:25;18.50;99.90
68139;DHT22;54940;50.842;4.410;2022-07-22T00:17:51;18.40;99.90
68139;DHT22;54940;50.842;4.410;2022-07-22T00:20:16;18.40;99.90
68139;DHT22;54940;50.842;4.410;2022-07-22T00:22:42;18.40;99.90
68139;DHT22;54940;50.842;4.410;2022-07-22T00:25:08;18.30;99.90
68139;DHT22;54940;50.842;4.410;2022-07-22T00:27:34;18.30;99.90
68139;DHT22;54940;50.842;4.410;2022-07-22T00:30:00;18.30;99.90
68139;DHT22;54940;50.842;4.410;2022-07-22T00:32:25;18.30;99.90
68139;DHT22;54940;50.842;4.410;2022-07-22T00:34:51;18.30;99.90
68139;DHT22;54940;50.842;4.410;2022-07-22T00:37:16;18.30;99.90
68139;DHT22;54940;50.842;4.410;2022-07-22T00:39:42;18.30;99.90
68139;DHT22;54940;50.842;4.410;2022-07-22T00:42:08;18.30;99.90
68139;DHT22;54940;50.842;4.410;2022-07-22T00:44:33;18.20;99.90
68139;DHT22;54940;50.842;4.410;2022-07-22T00:46:59;18.20;99.90
68139;DHT22;54940;50.842;4.410;2022-07-22T00:49:26;18.10;99.90
68139;DHT22;54940;50.842;4.410;2022-07-22T00:51:51;18.10;99.90
68139;DHT22;54940;50.842;4.410;2022-07-22T00:54:17;18.10;99.90
68139;DHT22;54940;50.842;4.410;2022-07-22T00:56:43;18.10;99.90
68139;DHT22;54940;50.842;4.410;2022-07-22T00:59:10;18.10;99.90
68139;DHT22;54940;50.842;4.410;2022-07-22T01:01:36;18.10;99.90
68139;DHT22;54940;50.842;4.410;2022-07-22T01:04:03;18.00;99.90
68139;DHT22;54940;50.842;4.410;2022-07-22T01:06:29;18.00;99.90
68139;DHT22;54940;50.842;4.410;2022-07-22T01:08:55;18.00;99.90
68139;DHT22;54940;50.842;4.410;2022-07-22T01:11:22;18.10;99.90
68139;DHT22;54940;50.842;4.410;2022-07-22T01:13:48;18.00;99.90
68139;DHT22;54940;50.842;4.410;2022-07-22T01:16:15;18.00;99.90
68139;DHT22;54940;50.842;4.410;2022-07-22T01:18:41;18.00;99.90
68139;DHT22;54940;50.842;4.410;2022-07-22T01:21:08;17.90;99.90
68139;DHT22;54940;50.842;4.410;2022-07-22T01:23:34;17.90;99.90
68139;DHT22;54940;50.842;4.410;2022-07-22T01:26:01;17.90;99.90
68139;DHT22;54940;50.842;4.410;2022-07-22T01:28:26;17.90;99.90
68139;DHT22;54940;50.842;4.410;2022-07-22T01:30:52;17.90;99.90
68139;DHT22;54940;50.842;4.410;2022-07-22T01:33:20;17.90;99.90
68139;DHT22;54940;50.842;4.410;2022-07-22T01:35:46;17.80;99.90
68139;DHT22;54940;50.842;4.410;2022-07-22T01:38:13;17.80;99.90
68139;DHT22;54940;50.842;4.410;2022-07-22T01:40:39;17.80;99.90
68139;DHT22;54940;50.842;4.410;2022-07-22T01:43:05;17.80;99.90
68139;DHT22;54940;50.842;4.410;2022-07-22T01:45:31;17.80;99.90
68139;DHT22;54940;50.842;4.410;2022-07-22T01:47:57;17.80;99.90
68139;DHT22;54940;50.842;4.410;2022-07-22T01:50:23;17.70;99.90
68139;DHT22;54940;50.842;4.410;2022-07-22T01:52:49;17.60;99.90
68139;DHT22;54940;50.842;4.410;2022-07-22T01:55:15;17.60;99.90
68139;DHT22;54940;50.842;4.410;2022-07-22T01:57:40;17.60;99.90
68139;DHT22;54940;50.842;4.410;2022-07-22T02:00:07;17.50;99.90
68139;DHT22;54940;50.842;4.410;2022-07-22T02:02:34;17.50;99.90
68139;DHT22;54940;50.842;4.410;2022-07-22T02:05:00;17.50;99.90
68139;DHT22;54940;50.842;4.410;2022-07-22T02:07:26;17.50;99.90
68139;DHT22;54940;50.842;4.410;2022-07-22T02:09:52;17.30;99.90
68139;DHT22;54940;50.842;4.410;2022-07-22T02:12:18;17.40;99.90
68139;DHT22;54940;50.842;4.410;2022-07-22T02:14:44;17.30;99.90
68139;DHT22;54940;50.842;4.410;2022-07-22T02:17:10;17.20;99.90
68139;DHT22;54940;50.842;4.410;2022-07-22T02:19:36;17.20;99.90
68139;DHT22;54940;50.842;4.410;2022-07-22T02:22:01;17.30;99.90
68139;DHT22;54940;50.842;4.410;2022-07-22T02:24:27;17.30;99.90
68139;DHT22;54940;50.842;4.410;2022-07-22T02:26:53;17.40;99.90
68139;DHT22;54940;50.842;4.410;2022-07-22T02:29:18;17.40;99.90
68139;DHT22;54940;50.842;4.410;2022-07-22T02:31:44;17.40;99.90
68139;DHT22;54940;50.842;4.410;2022-07-22T02:34:10;17.40;99.90
68139;DHT22;54940;50.842;4.410;2022-07-22T02:36:36;17.40;99.90
68139;DHT22;54940;50.842;4.410;2022-07-22T02:39:02;17.40;99.90
68139;DHT22;54940;50.842;4.410;2022-07-22T02:41:28;17.40;99.90
68139;DHT22;54940;50.842;4.410;2022-07-22T02:43:53;17.50;99.90
68139;DHT22;54940;50.842;4.410;2022-07-22T02:46:24;17.40;99.90
68139;DHT22;54940;50.842;4.410;2022-07-22T02:48:50;17.40;99.90
68139;DHT22;54940;50.842;4.410;2022-07-22T02:51:16;17.40;99.90
68139;DHT22;54940;50.842;4.410;2022-07-22T02:53:42;17.40;99.90
68139;DHT22;54940;50.842;4.410;2022-07-22T02:56:08;17.40;99.90
68139;DHT22;54940;50.842;4.410;2022-07-22T02:58:33;17.30;99.90
68139;DHT22;54940;50.842;4.410;2022-07-22T03:00:59;17.30;99.90
68139;DHT22;54940;50.842;4.410;2022-07-22T03:03:25;17.30;99.90
68139;DHT22;54940;50.842;4.410;2022-07-22T03:05:50;17.30;99.90
68139;DHT22;54940;50.842;4.410;2022-07-22T03:08:16;17.30;99.90
68139;DHT22;54940;50.842;4.410;2022-07-22T03:10:42;17.30;99.90
68139;DHT22;54940;50.842;4.410;2022-07-22T03:13:08;17.30;99.90
68139;DHT22;54940;50.842;4.410;2022-07-22T03:15:34;17.30;99.90
68139;DHT22;54940;50.842;4.410;2022-07-22T03:18:00;17.20;99.90
68139;DHT22;54940;50.842;4.410;2022-07-22T03:20:26;17.30;99.90
68139;DHT22;54940;50.842;4.410;2022-07-22T03:22:51;17.30;99.90
68139;DHT22;54940;50.842;4.410;2022-07-22T03:25:17;17.30;99.90
68139;DHT22;54940;50.842;4.410;2022-07-22T03:27:43;17.30;99.90
68139;DHT22;54940;50.842;4.410;2022-07-22T03:30:08;17.20;99.90
68139;DHT22;54940;50.842;4.410;2022-07-22T03:32:34;17.20;99.90
68139;DHT22;54940;50.842;4.410;2022-07-22T03:35:00;17.20;99.90
68139;DHT22;54940;50.842;4.410;2022-07-22T03:37:26;17.20;99.90
68139;DHT22;54940;50.842;4.410;2022-07-22T03:39:51;17.20;99.90
68139;DHT22;54940;50.842;4.410;2022-07-22T03:42:17;17.10;99.90
68139;DHT22;54940;50.842;4.410;2022-07-22T03:44:42;17.10;99.90
68139;DHT22;54940;50.842;4.410;2022-07-22T03:47:08;17.10;99.90
68139;DHT22;54940;50.842;4.410;2022-07-22T03:49:34;17.10;99.90
68139;DHT22;54940;50.842;4.410;2022-07-22T03:51:59;17.10;99.90
68139;DHT22;54940;50.842;4.410;2022-07-22T03:54:25;17.00;99.90
68139;DHT22;54940;50.842;4.410;2022-07-22T03:56:51;16.90;99.90
68139;DHT22;54940;50.842;4.410;2022-07-22T03:59:16;16.80;99.90
68139;DHT22;54940;50.842;4.410;2022-07-22T04:01:42;16.70;99.90
68139;DHT22;54940;50.842;4.410;2022-07-22T04:04:08;16.60;99.90
68139;DHT22;54940;50.842;4.410;2022-07-22T04:06:34;16.60;99.90
68139;DHT22;54940;50.842;4.410;2022-07-22T04:09:00;16.70;99.90
68139;DHT22;54940;50.842;4.410;2022-07-22T04:11:26;16.70;99.90
68139;DHT22;54940;50.842;4.410;2022-07-22T04:13:52;16.70;99.90
68139;DHT22;54940;50.842;4.410;2022-07-22T04:16:18;16.70;99.90
68139;DHT22;54940;50.842;4.410;2022-07-22T04:18:43;16.70;99.90
68139;DHT22;54940;50.842;4.410;2022-07-22T04:21:09;16.80;99.90
68139;DHT22;54940;50.842;4.410;2022-07-22T04:23:35;16.80;99.90
68139;DHT22;54940;50.842;4.410;2022-07-22T04:26:01;16.90;99.90
68139;DHT22;54940;50.842;4.410;2022-07-22T04:28:27;16.80;99.90
68139;DHT22;54940;50.842;4.410;2022-07-22T04:30:52;16.80;99.90
68139;DHT22;54940;50.842;4.410;2022-07-22T04:33:18;16.70;99.90
68139;DHT22;54940;50.842;4.410;2022-07-22T04:35:44;16.80;99.90
68139;DHT22;54940;50.842;4.410;2022-07-22T04:38:10;16.80;99.90
68139;DHT22;54940;50.842;4.410;2022-07-22T04:40:35;16.80;99.90
68139;DHT22;54940;50.842;4.410;2022-07-22T04:43:01;16.80;99.90
68139;DHT22;54940;50.842;4.410;2022-07-22T04:45:27;16.90;99.90
68139;DHT22;54940;50.842;4.410;2022-07-22T04:47:52;16.80;99.90
68139;DHT22;54940;50.842;4.410;2022-07-22T04:50:18;16.90;99.90
68139;DHT22;54940;50.842;4.410;2022-07-22T04:52:44;17.00;99.90
68139;DHT22;54940;50.842;4.410;2022-07-22T04:55:09;16.90;99.90
68139;DHT22;54940;50.842;4.410;2022-07-22T04:57:35;17.00;99.90
68139;DHT22;54940;50.842;4.410;2022-07-22T05:00:01;17.00;99.90
68139;DHT22;54940;50.842;4.410;2022-07-22T05:02:27;17.20;99.90
68139;DHT22;54940;50.842;4.410;2022-07-22T05:04:52;17.10;99.90
68139;DHT22;54940;50.842;4.410;2022-07-22T05:07:18;17.10;99.90
68139;DHT22;54940;50.842;4.410;2022-07-22T05:09:44;17.20;99.90
68139;DHT22;54940;50.842;4.410;2022-07-22T05:12:09;17.20;99.90
68139;DHT22;54940;50.842;4.410;2022-07-22T05:14:35;17.10;99.90
68139;DHT22;54940;50.842;4.410;2022-07-22T05:17:00;17.20;99.90
68139;DHT22;54940;50.842;4.410;2022-07-22T05:19:26;17.20;99.90
68139;DHT22;54940;50.842;4.410;2022-07-22T05:21:52;17.20;99.90
68139;DHT22;54940;50.842;4.410;2022-07-22T05:24:17;17.30;99.90
68139;DHT22;54940;50.842;4.410;2022-07-22T05:26:43;17.50;99.90
68139;DHT22;54940;50.842;4.410;2022-07-22T05:29:08;17.60;99.90
68139;DHT22;54940;50.842;4.410;2022-07-22T05:31:34;17.90;99.90
68139;DHT22;54940;50.842;4.410;2022-07-22T05:34:00;18.30;99.90
68139;DHT22;54940;50.842;4.410;2022-07-22T05:36:26;18.50;99.90
68139;DHT22;54940;50.842;4.410;2022-07-22T05:38:52;18.90;99.90
68139;DHT22;54940;50.842;4.410;2022-07-22T05:41:17;19.40;99.90
68139;DHT22;54940;50.842;4.410;2022-07-22T05:43:43;19.80;99.90
68139;DHT22;54940;50.842;4.410;2022-07-22T05:46:09;20.10;99.90
68139;DHT22;54940;50.842;4.410;2022-07-22T05:48:35;20.30;99.90
68139;DHT22;54940;50.842;4.410;2022-07-22T05:51:00;20.40;99.90
68139;DHT22;54940;50.842;4.410;2022-07-22T05:53:26;20.60;99.90
68139;DHT22;54940;50.842;4.410;2022-07-22T05:55:52;20.90;99.90
68139;DHT22;54940;50.842;4.410;2022-07-22T05:58:18;21.10;99.90
68139;DHT22;54940;50.842;4.410;2022-07-22T06:00:43;21.00;99.90
68139;DHT22;54940;50.842;4.410;2022-07-22T06:03:09;21.00;99.90
68139;DHT22;54940;50.842;4.410;2022-07-22T06:05:35;20.80;99.90
68139;DHT22;54940;50.842;4.410;2022-07-22T06:08:04;20.50;99.90
68139;DHT22;54940;50.842;4.410;2022-07-22T06:10:30;20.40;99.90
68139;DHT22;54940;50.842;4.410;2022-07-22T06:12:56;20.80;99.90
68139;DHT22;54940;50.842;4.410;2022-07-22T06:15:21;20.80;99.90
68139;DHT22;54940;50.842;4.410;2022-07-22T06:17:47;20.80;99.90
68139;DHT22;54940;50.842;4.410;2022-07-22T06:20:13;20.70;99.90
68139;DHT22;54940;50.842;4.410;2022-07-22T06:22:41;20.60;99.90
68139;DHT22;54940;50.842;4.410;2022-07-22T06:25:07;20.40;99.90
68139;DHT22;54940;50.842;4.410;2022-07-22T06:27:34;20.60;99.90
68139;DHT22;54940;50.842;4.410;2022-07-22T06:30:00;20.50;99.90
68139;DHT22;54940;50.842;4.410;2022-07-22T06:32:25;20.70;99.90
68139;DHT22;54940;50.842;4.410;2022-07-22T06:34:51;20.90;99.90
68139;DHT22;54940;50.842;4.410;2022-07-22T06:37:16;21.40;99.90
68139;DHT22;54940;50.842;4.410;2022-07-22T06:39:42;21.30;98.70
68139;DHT22;54940;50.842;4.410;2022-07-22T06:42:08;21.40;98.70
68139;DHT22;54940;50.842;4.410;2022-07-22T06:44:33;21.30;98.20
68139;DHT22;54940;50.842;4.410;2022-07-22T06:46:59;21.30;99.80
68139;DHT22;54940;50.842;4.410;2022-07-22T06:49:24;21.50;99.90
68139;DHT22;54940;50.842;4.410;2022-07-22T06:51:50;21.90;97.90
68139;DHT22;54940;50.842;4.410;2022-07-22T06:54:16;21.80;98.80
68139;DHT22;54940;50.842;4.410;2022-07-22T06:56:41;21.80;97.80
68139;DHT22;54940;50.842;4.410;2022-07-22T06:59:07;21.30;98.30
68139;DHT22;54940;50.842;4.410;2022-07-22T07:01:33;21.00;99.00
68139;DHT22;54940;50.842;4.410;2022-07-22T07:03:58;20.70;99.90
68139;DHT22;54940;50.842;4.410;2022-07-22T07:06:24;20.50;97.60
68139;DHT22;54940;50.842;4.410;2022-07-22T07:08:49;20.30;99.40
68139;DHT22;54940;50.842;4.410;2022-07-22T07:11:15;20.20;97.80
68139;DHT22;54940;50.842;4.410;2022-07-22T07:13:41;20.10;98.60
68139;DHT22;54940;50.842;4.410;2022-07-22T07:16:06;19.80;99.20
68139;DHT22;54940;50.842;4.410;2022-07-22T07:18:32;19.70;98.30
68139;DHT22;54940;50.842;4.410;2022-07-22T07:20:58;19.50;98.50
68139;DHT22;54940;50.842;4.410;2022-07-22T07:23:24;19.40;99.10
68139;DHT22;54940;50.842;4.410;2022-07-22T07:25:49;19.60;99.60
68139;DHT22;54940;50.842;4.410;2022-07-22T07:28:15;19.70;98.00
68139;DHT22;54940;50.842;4.410;2022-07-22T07:30:41;19.90;98.10
68139;DHT22;54940;50.842;4.410;2022-07-22T07:33:06;20.10;99.90
68139;DHT22;54940;50.842;4.410;2022-07-22T07:35:32;20.60;99.90
68139;DHT22;54940;50.842;4.410;2022-07-22T07:37:58;20.90;99.90
68139;DHT22;54940;50.842;4.410;2022-07-22T07:40:24;21.30;97.30
68139;DHT22;54940;50.842;4.410;2022-07-22T07:42:50;21.20;95.10
68139;DHT22;54940;50.842;4.410;2022-07-22T07:45:15;21.00;95.60
68139;DHT22;54940;50.842;4.410;2022-07-22T07:47:41;20.80;97.10
68139;DHT22;54940;50.842;4.410;2022-07-22T07:50:08;20.60;95.80
68139;DHT22;54940;50.842;4.410;2022-07-22T07:52:41;20.20;97.60
68139;DHT22;54940;50.842;4.410;2022-07-22T07:55:08;20.20;98.40
68139;DHT22;54940;50.842;4.410;2022-07-22T07:57:35;20.40;99.10
68139;DHT22;54940;50.842;4.410;2022-07-22T08:00:01;20.30;98.20
68139;DHT22;54940;50.842;4.410;2022-07-22T08:02:28;20.20;98.50
68139;DHT22;54940;50.842;4.410;2022-07-22T08:04:53;20.30;99.20
68139;DHT22;54940;50.842;4.410;2022-07-22T08:07:19;20.40;99.90
68139;DHT22;54940;50.842;4.410;2022-07-22T08:09:44;20.50;96.10
68139;DHT22;54940;50.842;4.410;2022-07-22T08:12:10;20.40;96.90
68139;DHT22;54940;50.842;4.410;2022-07-22T08:14:36;20.40;97.30
68139;DHT22;54940;50.842;4.410;2022-07-22T08:17:02;20.30;96.60
68139;DHT22;54940;50.842;4.410;2022-07-22T08:19:27;20.40;98.40
68139;DHT22;54940;50.842;4.410;2022-07-22T08:21:53;20.40;98.30
68139;DHT22;54940;50.842;4.410;2022-07-22T08:24:19;20.40;97.50
68139;DHT22;54940;50.842;4.410;2022-07-22T08:26:44;20.60;98.80
68139;DHT22;54940;50.842;4.410;2022-07-22T08:29:10;20.60;97.50
68139;DHT22;54940;50.842;4.410;2022-07-22T08:31:37;20.70;97.50
68139;DHT22;54940;50.842;4.410;2022-07-22T08:34:03;20.40;96.50
68139;DHT22;54940;50.842;4.410;2022-07-22T08:36:30;20.50;97.80
68139;DHT22;54940;50.842;4.410;2022-07-22T08:38:56;20.60;97.80
68139;DHT22;54940;50.842;4.410;2022-07-22T08:41:23;20.90;99.90
68139;DHT22;54940;50.842;4.410;2022-07-22T08:43:49;20.90;99.20
68139;DHT22;54940;50.842;4.410;2022-07-22T08:46:15;21.00;99.50
68139;DHT22;54940;50.842;4.410;2022-07-22T08:48:41;21.10;97.60
68139;DHT22;54940;50.842;4.410;2022-07-22T08:51:07;21.40;97.80
68139;DHT22;54940;50.842;4.410;2022-07-22T08:53:33;21.50;96.10
68139;DHT22;54940;50.842;4.410;2022-07-22T08:55:59;21.60;96.30
68139;DHT22;54940;50.842;4.410;2022-07-22T08:58:26;22.00;97.00
68139;DHT22;54940;50.842;4.410;2022-07-22T09:01:09;22.10;95.50
68139;DHT22;54940;50.842;4.410;2022-07-22T09:03:51;22.30;95.50
68139;DHT22;54940;50.842;4.410;2022-07-22T09:06:18;21.80;94.50
68139;DHT22;54940;50.842;4.410;2022-07-22T09:08:57;21.70;95.00
68139;DHT22;54940;50.842;4.410;2022-07-22T09:11:26;21.80;95.40
68139;DHT22;54940;50.842;4.410;2022-07-22T09:13:54;21.90;94.20
68139;DHT22;54940;50.842;4.410;2022-07-22T09:16:42;21.90;93.80
68139;DHT22;54940;50.842;4.410;2022-07-22T09:19:09;22.10;95.00
68139;DHT22;54940;50.842;4.410;2022-07-22T09:21:37;22.20;94.10
68139;DHT22;54940;50.842;4.410;2022-07-22T09:24:04;22.20;94.30
68139;DHT22;54940;50.842;4.410;2022-07-22T09:26:32;22.30;95.90
68139;DHT22;54940;50.842;4.410;2022-07-22T09:28:58;22.60;97.80
68139;DHT22;54940;50.842;4.410;2022-07-22T09:31:31;23.10;95.80
68139;DHT22;54940;50.842;4.410;2022-07-22T09:34:00;23.30;92.70
68139;DHT22;54940;50.842;4.410;2022-07-22T09:36:26;23.10;94.20
68139;DHT22;54940;50.842;4.410;2022-07-22T09:38:52;23.00;94.40
68139;DHT22;54940;50.842;4.410;2022-07-22T09:41:18;23.00;93.70
68139;DHT22;54940;50.842;4.410;2022-07-22T09:43:44;22.90;94.60
68139;DHT22;54940;50.842;4.410;2022-07-22T09:46:10;23.00;93.10
68139;DHT22;54940;50.842;4.410;2022-07-22T09:48:37;23.00;92.90
68139;DHT22;54940;50.842;4.410;2022-07-22T09:51:04;23.30;94.90
68139;DHT22;54940;50.842;4.410;2022-07-22T09:53:31;23.50;92.10
68139;DHT22;54940;50.842;4.410;2022-07-22T09:55:59;23.40;91.20
68139;DHT22;54940;50.842;4.410;2022-07-22T09:58:26;23.10;92.40
68139;DHT22;54940;50.842;4.410;2022-07-22T10:00:52;22.90;93.00
68139;DHT22;54940;50.842;4.410;2022-07-22T10:03:28;22.80;94.40
68139;DHT22;54940;50.842;4.410;2022-07-22T10:05:54;22.80;94.20
68139;DHT22;54940;50.842;4.410;2022-07-22T10:08:20;22.80;93.30
68139;DHT22;54940;50.842;4.410;2022-07-22T10:10:46;22.70;95.90
68139;DHT22;54940;50.842;4.410;2022-07-22T10:13:13;22.70;91.90
68139;DHT22;54940;50.842;4.410;2022-07-22T10:15:38;22.70;96.10
68139;DHT22;54940;50.842;4.410;2022-07-22T10:18:07;22.80;95.40
68139;DHT22;54940;50.842;4.410;2022-07-22T10:20:34;23.10;93.00
68139;DHT22;54940;50.842;4.410;2022-07-22T10:23:03;23.30;95.00
68139;DHT22;54940;50.842;4.410;2022-07-22T10:25:31;23.60;93.40
68139;DHT22;54940;50.842;4.410;2022-07-22T10:28:00;23.90;94.40
68139;DHT22;54940;50.842;4.410;2022-07-22T10:33:09;24.00;90.90
68139;DHT22;54940;50.842;4.410;2022-07-22T10:36:00;24.00;91.20
68139;DHT22;54940;50.842;4.410;2022-07-22T10:38:27;24.00;93.30
68139;DHT22;54940;50.842;4.410;2022-07-22T10:41:01;23.60;90.70
68139;DHT22;54940;50.842;4.410;2022-07-22T10:43:45;23.80;93.00
68139;DHT22;54940;50.842;4.410;2022-07-22T10:46:11;24.00;93.30
68139;DHT22;54940;50.842;4.410;2022-07-22T10:56:34;23.90;92.70
68139;DHT22;54940;50.842;4.410;2022-07-22T10:59:16;24.20;92.40
68139;DHT22;54940;50.842;4.410;2022-07-22T11:01:47;24.50;91.50
68139;DHT22;54940;50.842;4.410;2022-07-22T11:04:23;24.80;92.70
68139;DHT22;54940;50.842;4.410;2022-07-22T11:06:54;25.00;91.50
68139;DHT22;54940;50.842;4.410;2022-07-22T11:09:21;24.50;89.00
68139;DHT22;54940;50.842;4.410;2022-07-22T11:11:52;23.90;89.60
68139;DHT22;54940;50.842;4.410;2022-07-22T11:16:53;23.80;90.10
68139;DHT22;54940;50.842;4.410;2022-07-22T11:19:27;24.00;94.10
68139;DHT22;54940;50.842;4.410;2022-07-22T11:22:01;24.20;88.40
68139;DHT22;54940;50.842;4.410;2022-07-22T11:24:28;24.20;93.00
68139;DHT22;54940;50.842;4.410;2022-07-22T11:26:57;24.40;91.00
68139;DHT22;54940;50.842;4.410;2022-07-22T11:29:38;24.30;90.90
68139;DHT22;54940;50.842;4.410;2022-07-22T11:32:08;24.50;91.20
68139;DHT22;54940;50.842;4.410;2022-07-22T11:34:42;24.30;90.50
68139;DHT22;54940;50.842;4.410;2022-07-22T11:37:11;24.40;93.10
68139;DHT22;54940;50.842;4.410;2022-07-22T11:39:37;24.50;90.10
68139;DHT22;54940;50.842;4.410;2022-07-22T11:42:04;24.30;90.90
68139;DHT22;54940;50.842;4.410;2022-07-22T11:44:32;24.50;91.10
68139;DHT22;54940;50.842;4.410;2022-07-22T11:46:58;24.50;90.80
68139;DHT22;54940;50.842;4.410;2022-07-22T11:49:27;24.40;91.10
68139;DHT22;54940;50.842;4.410;2022-07-22T11:51:54;24.50;91.20
68139;DHT22;54940;50.842;4.410;2022-07-22T11:54:20;24.60;91.60
68139;DHT22;54940;50.842;4.410;2022-07-22T11:56:46;24.50;87.90
68139;DHT22;54940;50.842;4.410;2022-07-22T11:59:13;24.30;89.30
68139;DHT22;54940;50.842;4.410;2022-07-22T12:01:40;24.10;90.40
68139;DHT22;54940;50.842;4.410;2022-07-22T12:04:21;24.10;93.10
68139;DHT22;54940;50.842;4.410;2022-07-22T12:06:48;24.20;92.10
68139;DHT22;54940;50.842;4.410;2022-07-22T12:09:23;24.10;91.20
68139;DHT22;54940;50.842;4.410;2022-07-22T12:11:50;24.10;90.80
68139;DHT22;54940;50.842;4.410;2022-07-22T12:14:20;24.00;90.90
68139;DHT22;54940;50.842;4.410;2022-07-22T12:17:15;24.30;93.00
68139;DHT22;54940;50.842;4.410;2022-07-22T12:19:41;24.50;91.70
68139;DHT22;54940;50.842;4.410;2022-07-22T12:22:08;24.70;91.50
68139;DHT22;54940;50.842;4.410;2022-07-22T12:32:30;23.80;91.40
68139;DHT22;54940;50.842;4.410;2022-07-22T12:35:05;23.80;91.10
68139;DHT22;54940;50.842;4.410;2022-07-22T12:37:43;24.00;91.80
68139;DHT22;54940;50.842;4.410;2022-07-22T12:40:19;24.10;92.40
68139;DHT22;54940;50.842;4.410;2022-07-22T12:42:59;24.30;93.50
68139;DHT22;54940;50.842;4.410;2022-07-22T12:45:26;24.40;91.20
68139;DHT22;54940;50.842;4.410;2022-07-22T12:50:54;24.40;90.20
68139;DHT22;54940;50.842;4.410;2022-07-22T12:53:24;24.50;92.70
68139;DHT22;54940;50.842;4.410;2022-07-22T12:55:55;24.60;92.80
68139;DHT22;54940;50.842;4.410;2022-07-22T12:58:24;24.70;91.00
68139;DHT22;54940;50.842;4.410;2022-07-22T13:00:52;24.80;87.70
68139;DHT22;54940;50.842;4.410;2022-07-22T13:03:19;24.60;86.80
68139;DHT22;54940;50.842;4.410;2022-07-22T13:05:49;24.70;90.10
68139;DHT22;54940;50.842;4.410;2022-07-22T13:08:16;24.90;90.70
68139;DHT22;54940;50.842;4.410;2022-07-22T13:10:42;24.80;90.80
68139;DHT22;54940;50.842;4.410;2022-07-22T13:13:08;24.70;90.00
68139;DHT22;54940;50.842;4.410;2022-07-22T13:15:34;24.50;89.60
68139;DHT22;54940;50.842;4.410;2022-07-22T13:18:00;24.80;91.90
68139;DHT22;54940;50.842;4.410;2022-07-22T13:20:26;24.90;90.40
68139;DHT22;54940;50.842;4.410;2022-07-22T13:22:52;25.00;90.00
68139;DHT22;54940;50.842;4.410;2022-07-22T13:25:18;25.00;92.60
68139;DHT22;54940;50.842;4.410;2022-07-22T13:27:43;24.70;91.70
68139;DHT22;54940;50.842;4.410;2022-07-22T13:30:10;24.80;91.80
68139;DHT22;54940;50.842;4.410;2022-07-22T13:32:35;24.80;89.10
68139;DHT22;54940;50.842;4.410;2022-07-22T13:35:01;24.80;91.80
68139;DHT22;54940;50.842;4.410;2022-07-22T13:37:27;24.60;88.60
68139;DHT22;54940;50.842;4.410;2022-07-22T13:39:53;24.70;90.40
68139;DHT22;54940;50.842;4.410;2022-07-22T13:42:19;24.80;86.10
68139;DHT22;54940;50.842;4.410;2022-07-22T13:44:49;24.80;91.50
68139;DHT22;54940;50.842;4.410;2022-07-22T13:47:17;24.80;86.80
68139;DHT22;54940;50.842;4.410;2022-07-22T13:49:43;24.60;86.60
68139;DHT22;54940;50.842;4.410;2022-07-22T13:52:11;24.40;90.20
68139;DHT22;54940;50.842;4.410;2022-07-22T13:54:36;24.00;89.80
68139;DHT22;54940;50.842;4.410;2022-07-22T13:57:04;24.00;91.90
68139;DHT22;54940;50.842;4.410;2022-07-22T13:59:30;24.00;90.80
68139;DHT22;54940;50.842;4.410;2022-07-22T14:01:56;24.10;92.00
68139;DHT22;54940;50.842;4.410;2022-07-22T14:04:22;24.20;91.20
68139;DHT22;54940;50.842;4.410;2022-07-22T14:06:48;24.30;91.40
68139;DHT22;54940;50.842;4.410;2022-07-22T14:09:14;24.30;91.70
68139;DHT22;54940;50.842;4.410;2022-07-22T14:11:39;24.30;91.80
68139;DHT22;54940;50.842;4.410;2022-07-22T14:14:05;24.30;92.10
68139;DHT22;54940;50.842;4.410;2022-07-22T14:16:32;24.40;91.90
68139;DHT22;54940;50.842;4.410;2022-07-22T14:19:08;24.60;92.60
68139;DHT22;54940;50.842;4.410;2022-07-22T14:21:35;24.60;91.40
68139;DHT22;54940;50.842;4.410;2022-07-22T14:24:02;24.60;91.30
68139;DHT22;54940;50.842;4.410;2022-07-22T14:26:29;24.60;92.10
68139;DHT22;54940;50.842;4.410;2022-07-22T14:28:56;24.40;91.70
68139;DHT22;54940;50.842;4.410;2022-07-22T14:31:22;24.30;92.10
68139;DHT22;54940;50.842;4.410;2022-07-22T14:33:47;24.10;91.90
68139;DHT22;54940;50.842;4.410;2022-07-22T14:36:14;24.00;91.50
68139;DHT22;54940;50.842;4.410;2022-07-22T14:38:39;24.00;91.50
68139;DHT22;54940;50.842;4.410;2022-07-22T14:41:05;23.90;91.50
68139;DHT22;54940;50.842;4.410;2022-07-22T14:43:33;23.80;91.00
68139;DHT22;54940;50.842;4.410;2022-07-22T14:45:59;23.90;90.90
68139;DHT22;54940;50.842;4.410;2022-07-22T14:48:25;23.60;91.90
68139;DHT22;54940;50.842;4.410;2022-07-22T14:50:50;23.50;93.30
68139;DHT22;54940;50.842;4.410;2022-07-22T14:53:16;23.50;92.60
68139;DHT22;54940;50.842;4.410;2022-07-22T14:55:42;23.50;93.80
68139;DHT22;54940;50.842;4.410;2022-07-22T14:58:08;23.60;92.40
68139;DHT22;54940;50.842;4.410;2022-07-22T15:00:34;23.70;93.00
68139;DHT22;54940;50.842;4.410;2022-07-22T15:02:59;23.70;92.70
68139;DHT22;54940;50.842;4.410;2022-07-22T15:05:25;23.60;93.70
68139;DHT22;54940;50.842;4.410;2022-07-22T15:07:51;23.70;93.40
68139;DHT22;54940;50.842;4.410;2022-07-22T15:10:16;23.60;91.50
68139;DHT22;54940;50.842;4.410;2022-07-22T15:12:42;23.50;92.50
68139;DHT22;54940;50.842;4.410;2022-07-22T15:15:09;23.60;91.00
68139;DHT22;54940;50.842;4.410;2022-07-22T15:17:36;23.40;92.10
68139;DHT22;54940;50.842;4.410;2022-07-22T15:20:03;23.30;92.30
68139;DHT22;54940;50.842;4.410;2022-07-22T15:22:30;23.20;94.00
68139;DHT22;54940;50.842;4.410;2022-07-22T15:24:56;23.30;92.60
68139;DHT22;54940;50.842;4.410;2022-07-22T15:27:21;23.30;93.30
68139;DHT22;54940;50.842;4.410;2022-07-22T15:29:47;23.30;93.40
68139;DHT22;54940;50.842;4.410;2022-07-22T15:32:14;23.40;93.20
68139;DHT22;54940;50.842;4.410;2022-07-22T15:34:40;23.40;93.00
68139;DHT22;54940;50.842;4.410;2022-07-22T15:37:06;23.50;94.00
68139;DHT22;54940;50.842;4.410;2022-07-22T15:39:31;23.60;94.10
68139;DHT22;54940;50.842;4.410;2022-07-22T15:41:57;23.70;93.20
68139;DHT22;54940;50.842;4.410;2022-07-22T15:44:23;23.70;93.10
68139;DHT22;54940;50.842;4.410;2022-07-22T15:46:48;23.70;92.80
68139;DHT22;54940;50.842;4.410;2022-07-22T15:49:14;23.70;93.30
68139;DHT22;54940;50.842;4.410;2022-07-22T15:51:40;23.70;93.00